sensor_id;sensor_type;location;lat;lon;timestamp;P1;durP1;ratioP1;P2;durP2;ratioP2
44328;SDS011;30039;51.462;6.892;2023-04-03T00:02:08;5.80;;;3.88;;
44328;SDS011;30039;51.462;6.892;2023-04-03T00:04:56;8.48;;;4.10;;
44328;SDS011;30039;51.462;6.892;2023-04-03T00:07:42;8.32;;;4.20;;
44328;SDS011;30039;51.462;6.892;2023-04-03T00:10:28;5.90;;;3.83;;
44328;SDS011;30039;51.462;6.892;2023-04-03T00:13:13;6.53;;;4.40;;
44328;SDS011;30039;51.462;6.892;2023-04-03T00:15:59;6.93;;;4.30;;
44328;SDS011;30039;51.462;6.892;2023-04-03T00:18:45;7.63;;;4.40;;
44328;SDS011;30039;51.462;6.892;2023-04-03T00:21:31;9.98;;;4.18;;
44328;SDS011;30039;51.462;6.892;2023-04-03T00:24:16;6.28;;;4.13;;
44328;SDS011;30039;51.462;6.892;2023-04-03T00:27:02;9.20;;;4.22;;
44328;SDS011;30039;51.462;6.892;2023-04-03T00:29:48;7.72;;;4.47;;
44328;SDS011;30039;51.462;6.892;2023-04-03T00:32:33;7.00;;;3.92;;
44328;SDS011;30039;51.462;6.892;2023-04-03T00:35:20;10.07;;;4.65;;
44328;SDS011;30039;51.462;6.892;2023-04-03T00:38:06;7.22;;;4.30;;
44328;SDS011;30039;51.462;6.892;2023-04-03T00:40:52;9.85;;;4.28;;
44328;SDS011;30039;51.462;6.892;2023-04-03T00:43:37;8.25;;;4.85;;
44328;SDS011;30039;51.462;6.892;2023-04-03T00:46:23;9.20;;;4.80;;
44328;SDS011;30039;51.462;6.892;2023-04-03T00:49:09;9.45;;;4.28;;
44328;SDS011;30039;51.462;6.892;2023-04-03T00:51:55;6.32;;;4.00;;
44328;SDS011;30039;51.462;6.892;2023-04-03T00:54:43;11.02;;;5.07;;
44328;SDS011;30039;51.462;6.892;2023-04-03T00:57:30;9.65;;;4.90;;
44328;SDS011;30039;51.462;6.892;2023-04-03T01:00:17;8.65;;;4.30;;
44328;SDS011;30039;51.462;6.892;2023-04-03T01:03:04;10.07;;;5.20;;
44328;SDS011;30039;51.462;6.892;2023-04-03T01:05:49;8.68;;;4.85;;
44328;SDS011;30039;51.462;6.892;2023-04-03T01:08:35;9.48;;;4.93;;
44328;SDS011;30039;51.462;6.892;2023-04-03T01:11:21;8.38;;;4.70;;
44328;SDS011;30039;51.462;6.892;2023-04-03T01:14:07;7.03;;;4.60;;
44328;SDS011;30039;51.462;6.892;2023-04-03T01:16:53;7.85;;;5.15;;
44328;SDS011;30039;51.462;6.892;2023-04-03T01:19:39;9.02;;;4.50;;
44328;SDS011;30039;51.462;6.892;2023-04-03T01:22:28;7.40;;;5.10;;
44328;SDS011;30039;51.462;6.892;2023-04-03T01:25:16;7.85;;;5.25;;
44328;SDS011;30039;51.462;6.892;2023-04-03T01:28:02;8.35;;;5.30;;
44328;SDS011;30039;51.462;6.892;2023-04-03T01:31:12;8.88;;;5.47;;
44328;SDS011;30039;51.462;6.892;2023-04-03T01:33:54;11.77;;;5.82;;
44328;SDS011;30039;51.462;6.892;2023-04-03T01:36:40;13.02;;;5.20;;
44328;SDS011;30039;51.462;6.892;2023-04-03T01:39:26;10.05;;;5.18;;
44328;SDS011;30039;51.462;6.892;2023-04-03T01:42:12;9.13;;;5.07;;
44328;SDS011;30039;51.462;6.892;2023-04-03T01:44:57;9.77;;;5.55;;
44328;SDS011;30039;51.462;6.892;2023-04-03T01:47:43;10.40;;;4.85;;
44328;SDS011;30039;51.462;6.892;2023-04-03T01:50:29;8.30;;;4.93;;
44328;SDS011;30039;51.462;6.892;2023-04-03T01:53:14;7.85;;;4.25;;
44328;SDS011;30039;51.462;6.892;2023-04-03T01:56:00;7.38;;;4.32;;
44328;SDS011;30039;51.462;6.892;2023-04-03T01:58:46;9.48;;;4.13;;
44328;SDS011;30039;51.462;6.892;2023-04-03T02:01:31;7.88;;;4.00;;
44328;SDS011;30039;51.462;6.892;2023-04-03T02:04:17;6.72;;;4.10;;
44328;SDS011;30039;51.462;6.892;2023-04-03T02:07:03;10.43;;;3.83;;
44328;SDS011;30039;51.462;6.892;2023-04-03T02:09:48;6.80;;;3.60;;
44328;SDS011;30039;51.462;6.892;2023-04-03T02:12:34;7.53;;;3.72;;
44328;SDS011;30039;51.462;6.892;2023-04-03T02:15:20;8.32;;;3.72;;
44328;SDS011;30039;51.462;6.892;2023-04-03T02:18:06;12.30;;;3.53;;
44328;SDS011;30039;51.462;6.892;2023-04-03T02:20:52;6.25;;;2.67;;
44328;SDS011;30039;51.462;6.892;2023-04-03T02:23:37;4.65;;;2.97;;
44328;SDS011;30039;51.462;6.892;2023-04-03T02:26:23;5.65;;;3.17;;
44328;SDS011;30039;51.462;6.892;2023-04-03T02:29:08;7.55;;;3.33;;
44328;SDS011;30039;51.462;6.892;2023-04-03T02:31:54;7.22;;;3.45;;
44328;SDS011;30039;51.462;6.892;2023-04-03T02:34:40;5.93;;;2.90;;
44328;SDS011;30039;51.462;6.892;2023-04-03T02:37:26;7.07;;;3.33;;
44328;SDS011;30039;51.462;6.892;2023-04-03T02:40:11;5.15;;;2.63;;
44328;SDS011;30039;51.462;6.892;2023-04-03T02:42:57;6.45;;;3.00;;
44328;SDS011;30039;51.462;6.892;2023-04-03T02:45:43;5.18;;;3.00;;
44328;SDS011;30039;51.462;6.892;2023-04-03T02:48:28;5.05;;;2.78;;
44328;SDS011;30039;51.462;6.892;2023-04-03T02:51:15;6.00;;;2.55;;
44328;SDS011;30039;51.462;6.892;2023-04-03T02:54:00;11.10;;;2.85;;
44328;SDS011;30039;51.462;6.892;2023-04-03T02:56:49;4.85;;;2.72;;
44328;SDS011;30039;51.462;6.892;2023-04-03T02:59:36;5.07;;;2.60;;
44328;SDS011;30039;51.462;6.892;2023-04-03T03:02:22;4.80;;;2.30;;
44328;SDS011;30039;51.462;6.892;2023-04-03T03:05:07;5.70;;;2.30;;
44328;SDS011;30039;51.462;6.892;2023-04-03T03:07:53;5.93;;;2.08;;
44328;SDS011;30039;51.462;6.892;2023-04-03T03:10:39;3.38;;;2.13;;
44328;SDS011;30039;51.462;6.892;2023-04-03T03:13:25;8.15;;;2.10;;
44328;SDS011;30039;51.462;6.892;2023-04-03T03:16:11;5.65;;;2.40;;
44328;SDS011;30039;51.462;6.892;2023-04-03T03:18:56;5.50;;;2.10;;
44328;SDS011;30039;51.462;6.892;2023-04-03T03:21:42;3.28;;;2.00;;
44328;SDS011;30039;51.462;6.892;2023-04-03T03:24:27;4.20;;;2.20;;
44328;SDS011;30039;51.462;6.892;2023-04-03T03:27:13;5.32;;;2.10;;
44328;SDS011;30039;51.462;6.892;2023-04-03T03:29:59;6.30;;;1.85;;
44328;SDS011;30039;51.462;6.892;2023-04-03T03:32:44;5.05;;;1.98;;
44328;SDS011;30039;51.462;6.892;2023-04-03T03:35:30;3.60;;;1.95;;
44328;SDS011;30039;51.462;6.892;2023-04-03T03:38:16;3.80;;;1.80;;
44328;SDS011;30039;51.462;6.892;2023-04-03T03:41:01;5.68;;;2.08;;
44328;SDS011;30039;51.462;6.892;2023-04-03T03:43:47;8.68;;;3.00;;
44328;SDS011;30039;51.462;6.892;2023-04-03T03:46:32;4.90;;;1.92;;
44328;SDS011;30039;51.462;6.892;2023-04-03T03:49:18;8.32;;;1.77;;
44328;SDS011;30039;51.462;6.892;2023-04-03T03:52:04;6.97;;;2.40;;
44328;SDS011;30039;51.462;6.892;2023-04-03T03:54:50;5.28;;;1.73;;
44328;SDS011;30039;51.462;6.892;2023-04-03T03:57:36;5.68;;;2.20;;
44328;SDS011;30039;51.462;6.892;2023-04-03T04:00:22;6.22;;;2.30;;
44328;SDS011;30039;51.462;6.892;2023-04-03T04:03:07;4.38;;;1.80;;
44328;SDS011;30039;51.462;6.892;2023-04-03T04:05:53;6.13;;;1.85;;
44328;SDS011;30039;51.462;6.892;2023-04-03T04:08:39;3.47;;;2.00;;
44328;SDS011;30039;51.462;6.892;2023-04-03T04:11:25;7.05;;;1.77;;
44328;SDS011;30039;51.462;6.892;2023-04-03T04:14:12;5.70;;;1.70;;
44328;SDS011;30039;51.462;6.892;2023-04-03T04:16:58;4.75;;;1.80;;
44328;SDS011;30039;51.462;6.892;2023-04-03T04:19:44;4.38;;;2.00;;
44328;SDS011;30039;51.462;6.892;2023-04-03T04:22:31;3.35;;;1.63;;
44328;SDS011;30039;51.462;6.892;2023-04-03T04:25:16;6.85;;;2.22;;
44328;SDS011;30039;51.462;6.892;2023-04-03T04:28:02;6.13;;;2.00;;
44328;SDS011;30039;51.462;6.892;2023-04-03T04:30:48;4.72;;;1.75;;
44328;SDS011;30039;51.462;6.892;2023-04-03T04:33:34;3.42;;;1.70;;
44328;SDS011;30039;51.462;6.892;2023-04-03T04:36:21;5.22;;;1.88;;
44328;SDS011;30039;51.462;6.892;2023-04-03T04:39:06;6.30;;;1.80;;
44328;SDS011;30039;51.462;6.892;2023-04-03T04:41:52;6.82;;;2.00;;
44328;SDS011;30039;51.462;6.892;2023-04-03T04:44:38;5.70;;;1.95;;
44328;SDS011;30039;51.462;6.892;2023-04-03T04:47:24;3.33;;;1.77;;
44328;SDS011;30039;51.462;6.892;2023-04-03T04:50:10;4.68;;;1.70;;
44328;SDS011;30039;51.462;6.892;2023-04-03T04:52:56;4.30;;;1.83;;
44328;SDS011;30039;51.462;6.892;2023-04-03T04:55:42;5.75;;;2.15;;
44328;SDS011;30039;51.462;6.892;2023-04-03T04:58:28;4.80;;;1.88;;
44328;SDS011;30039;51.462;6.892;2023-04-03T05:01:13;6.82;;;2.30;;
44328;SDS011;30039;51.462;6.892;2023-04-03T05:03:59;5.10;;;2.15;;
44328;SDS011;30039;51.462;6.892;2023-04-03T05:06:45;5.32;;;1.92;;
44328;SDS011;30039;51.462;6.892;2023-04-03T05:09:30;5.97;;;1.88;;
44328;SDS011;30039;51.462;6.892;2023-04-03T05:12:17;6.75;;;2.00;;
44328;SDS011;30039;51.462;6.892;2023-04-03T05:15:03;4.78;;;2.00;;
44328;SDS011;30039;51.462;6.892;2023-04-03T05:17:48;5.28;;;2.13;;
44328;SDS011;30039;51.462;6.892;2023-04-03T05:20:34;4.72;;;2.10;;
44328;SDS011;30039;51.462;6.892;2023-04-03T05:23:21;6.80;;;2.33;;
44328;SDS011;30039;51.462;6.892;2023-04-03T05:26:06;8.77;;;2.63;;
44328;SDS011;30039;51.462;6.892;2023-04-03T05:28:52;7.22;;;2.45;;
44328;SDS011;30039;51.462;6.892;2023-04-03T05:31:38;5.75;;;2.45;;
44328;SDS011;30039;51.462;6.892;2023-04-03T05:34:23;6.38;;;2.20;;
44328;SDS011;30039;51.462;6.892;2023-04-03T05:37:09;6.10;;;2.05;;
44328;SDS011;30039;51.462;6.892;2023-04-03T05:39:55;5.60;;;2.20;;
44328;SDS011;30039;51.462;6.892;2023-04-03T05:42:40;7.00;;;2.30;;
44328;SDS011;30039;51.462;6.892;2023-04-03T05:45:26;5.10;;;2.25;;
44328;SDS011;30039;51.462;6.892;2023-04-03T05:48:12;7.03;;;2.15;;
44328;SDS011;30039;51.462;6.892;2023-04-03T05:50:58;7.85;;;2.08;;
44328;SDS011;30039;51.462;6.892;2023-04-03T05:53:43;4.72;;;1.95;;
44328;SDS011;30039;51.462;6.892;2023-04-03T05:56:31;4.50;;;1.95;;
44328;SDS011;30039;51.462;6.892;2023-04-03T05:59:17;8.55;;;2.25;;
44328;SDS011;30039;51.462;6.892;2023-04-03T06:02:03;5.22;;;2.30;;
44328;SDS011;30039;51.462;6.892;2023-04-03T06:04:49;3.67;;;1.80;;
44328;SDS011;30039;51.462;6.892;2023-04-03T06:07:36;4.22;;;1.95;;
44328;SDS011;30039;51.462;6.892;2023-04-03T06:10:22;5.25;;;2.13;;
44328;SDS011;30039;51.462;6.892;2023-04-03T06:13:08;6.13;;;2.10;;
44328;SDS011;30039;51.462;6.892;2023-04-03T06:15:54;7.75;;;2.30;;
44328;SDS011;30039;51.462;6.892;2023-04-03T06:18:41;7.78;;;1.52;;
44328;SDS011;30039;51.462;6.892;2023-04-03T06:21:27;4.63;;;1.95;;
44328;SDS011;30039;51.462;6.892;2023-04-03T06:24:14;7.22;;;1.90;;
44328;SDS011;30039;51.462;6.892;2023-04-03T06:27:01;7.60;;;2.17;;
44328;SDS011;30039;51.462;6.892;2023-04-03T06:29:47;4.97;;;2.05;;
44328;SDS011;30039;51.462;6.892;2023-04-03T06:32:34;7.65;;;2.08;;
44328;SDS011;30039;51.462;6.892;2023-04-03T06:35:19;9.02;;;2.17;;
44328;SDS011;30039;51.462;6.892;2023-04-03T06:38:06;5.55;;;2.08;;
44328;SDS011;30039;51.462;6.892;2023-04-03T06:40:54;7.13;;;1.88;;
44328;SDS011;30039;51.462;6.892;2023-04-03T06:43:41;4.45;;;1.95;;
44328;SDS011;30039;51.462;6.892;2023-04-03T06:46:26;6.72;;;2.00;;
44328;SDS011;30039;51.462;6.892;2023-04-03T06:49:12;5.03;;;1.90;;
44328;SDS011;30039;51.462;6.892;2023-04-03T06:51:58;4.85;;;1.85;;
44328;SDS011;30039;51.462;6.892;2023-04-03T06:54:44;8.85;;;2.03;;
44328;SDS011;30039;51.462;6.892;2023-04-03T06:57:30;3.83;;;1.52;;
44328;SDS011;30039;51.462;6.892;2023-04-03T07:00:16;3.20;;;1.67;;
44328;SDS011;30039;51.462;6.892;2023-04-03T07:03:02;4.45;;;1.95;;
44328;SDS011;30039;51.462;6.892;2023-04-03T07:05:48;7.65;;;1.52;;
44328;SDS011;30039;51.462;6.892;2023-04-03T07:08:33;6.05;;;1.60;;
44328;SDS011;30039;51.462;6.892;2023-04-03T07:11:21;3.75;;;1.73;;
44328;SDS011;30039;51.462;6.892;2023-04-03T07:14:07;6.95;;;2.08;;
44328;SDS011;30039;51.462;6.892;2023-04-03T07:16:53;5.55;;;1.90;;
44328;SDS011;30039;51.462;6.892;2023-04-03T07:19:41;4.57;;;1.83;;
44328;SDS011;30039;51.462;6.892;2023-04-03T07:22:29;3.88;;;1.73;;
44328;SDS011;30039;51.462;6.892;2023-04-03T07:25:15;5.95;;;1.95;;
44328;SDS011;30039;51.462;6.892;2023-04-03T07:28:01;3.55;;;1.70;;
44328;SDS011;30039;51.462;6.892;2023-04-03T07:30:48;2.70;;;1.40;;
44328;SDS011;30039;51.462;6.892;2023-04-03T07:33:35;4.05;;;1.65;;
44328;SDS011;30039;51.462;6.892;2023-04-03T07:36:23;7.05;;;1.75;;
44328;SDS011;30039;51.462;6.892;2023-04-03T07:39:18;6.47;;;2.15;;
44328;SDS011;30039;51.462;6.892;2023-04-03T07:42:04;4.47;;;1.95;;
44328;SDS011;30039;51.462;6.892;2023-04-03T07:44:51;4.45;;;2.00;;
44328;SDS011;30039;51.462;6.892;2023-04-03T07:47:36;4.32;;;1.73;;
44328;SDS011;30039;51.462;6.892;2023-04-03T07:50:22;6.55;;;1.90;;
44328;SDS011;30039;51.462;6.892;2023-04-03T07:53:10;7.97;;;2.10;;
44328;SDS011;30039;51.462;6.892;2023-04-03T07:55:56;5.75;;;1.95;;
44328;SDS011;30039;51.462;6.892;2023-04-03T07:58:42;3.95;;;1.63;;
44328;SDS011;30039;51.462;6.892;2023-04-03T08:01:28;5.90;;;1.70;;
44328;SDS011;30039;51.462;6.892;2023-04-03T08:04:14;3.70;;;1.73;;
44328;SDS011;30039;51.462;6.892;2023-04-03T08:06:59;5.43;;;1.58;;
44328;SDS011;30039;51.462;6.892;2023-04-03T08:09:46;3.92;;;1.88;;
44328;SDS011;30039;51.462;6.892;2023-04-03T08:12:32;4.43;;;1.88;;
44328;SDS011;30039;51.462;6.892;2023-04-03T08:15:18;5.20;;;1.98;;
44328;SDS011;30039;51.462;6.892;2023-04-03T08:18:03;5.07;;;1.80;;
44328;SDS011;30039;51.462;6.892;2023-04-03T08:20:50;5.90;;;1.60;;
44328;SDS011;30039;51.462;6.892;2023-04-03T08:23:37;7.10;;;1.60;;
44328;SDS011;30039;51.462;6.892;2023-04-03T08:26:23;4.43;;;1.50;;
44328;SDS011;30039;51.462;6.892;2023-04-03T08:29:08;2.17;;;1.15;;
44328;SDS011;30039;51.462;6.892;2023-04-03T08:31:54;4.47;;;1.35;;
44328;SDS011;30039;51.462;6.892;2023-04-03T08:34:40;4.32;;;1.48;;
44328;SDS011;30039;51.462;6.892;2023-04-03T08:37:26;3.58;;;1.50;;
44328;SDS011;30039;51.462;6.892;2023-04-03T08:40:15;2.92;;;1.50;;
44328;SDS011;30039;51.462;6.892;2023-04-03T08:43:04;3.40;;;1.55;;
44328;SDS011;30039;51.462;6.892;2023-04-03T08:45:52;3.58;;;1.30;;
44328;SDS011;30039;51.462;6.892;2023-04-03T08:48:40;2.97;;;1.23;;
44328;SDS011;30039;51.462;6.892;2023-04-03T08:51:26;4.70;;;1.67;;
44328;SDS011;30039;51.462;6.892;2023-04-03T08:54:48;3.80;;;1.35;;
44328;SDS011;30039;51.462;6.892;2023-04-03T09:02:59;4.03;;;1.73;;
44328;SDS011;30039;51.462;6.892;2023-04-03T09:05:47;5.18;;;1.48;;
44328;SDS011;30039;51.462;6.892;2023-04-03T09:11:29;3.22;;;1.15;;
44328;SDS011;30039;51.462;6.892;2023-04-03T09:26:15;1.85;;;0.93;;
44328;SDS011;30039;51.462;6.892;2023-04-03T09:29:05;2.28;;;1.10;;
44328;SDS011;30039;51.462;6.892;2023-04-03T09:32:00;1.38;;;0.82;;
44328;SDS011;30039;51.462;6.892;2023-04-03T09:34:46;1.65;;;0.77;;
44328;SDS011;30039;51.462;6.892;2023-04-03T09:37:34;4.10;;;1.00;;
44328;SDS011;30039;51.462;6.892;2023-04-03T09:43:20;2.35;;;0.90;;
44328;SDS011;30039;51.462;6.892;2023-04-03T09:46:17;2.20;;;0.77;;
44328;SDS011;30039;51.462;6.892;2023-04-03T09:49:04;2.50;;;1.00;;
44328;SDS011;30039;51.462;6.892;2023-04-03T09:51:50;1.65;;;1.10;;
44328;SDS011;30039;51.462;6.892;2023-04-03T09:54:37;5.38;;;0.90;;
44328;SDS011;30039;51.462;6.892;2023-04-03T09:57:28;1.95;;;0.90;;
44328;SDS011;30039;51.462;6.892;2023-04-03T10:00:21;1.35;;;0.88;;
44328;SDS011;30039;51.462;6.892;2023-04-03T10:03:23;1.48;;;0.82;;
44328;SDS011;30039;51.462;6.892;2023-04-03T10:06:23;3.20;;;0.88;;
44328;SDS011;30039;51.462;6.892;2023-04-03T10:09:28;2.08;;;0.90;;
44328;SDS011;30039;51.462;6.892;2023-04-03T10:12:14;1.70;;;0.80;;
44328;SDS011;30039;51.462;6.892;2023-04-03T10:15:10;2.63;;;0.93;;
44328;SDS011;30039;51.462;6.892;2023-04-03T10:18:00;1.10;;;0.90;;
44328;SDS011;30039;51.462;6.892;2023-04-03T10:20:48;3.83;;;1.38;;
44328;SDS011;30039;51.462;6.892;2023-04-03T10:23:44;1.98;;;0.75;;
44328;SDS011;30039;51.462;6.892;2023-04-03T10:29:43;3.13;;;0.80;;
44328;SDS011;30039;51.462;6.892;2023-04-03T10:35:43;1.70;;;0.90;;
44328;SDS011;30039;51.462;6.892;2023-04-03T10:47:02;1.10;;;0.90;;
44328;SDS011;30039;51.462;6.892;2023-04-03T10:59:13;2.33;;;1.00;;
44328;SDS011;30039;51.462;6.892;2023-04-03T11:01:54;3.05;;;1.33;;
44328;SDS011;30039;51.462;6.892;2023-04-03T11:04:41;2.30;;;1.10;;
44328;SDS011;30039;51.462;6.892;2023-04-03T11:07:32;2.75;;;1.00;;
44328;SDS011;30039;51.462;6.892;2023-04-03T11:10:24;3.38;;;1.40;;
44328;SDS011;30039;51.462;6.892;2023-04-03T11:13:13;2.55;;;1.15;;
44328;SDS011;30039;51.462;6.892;2023-04-03T11:16:01;3.17;;;1.45;;
44328;SDS011;30039;51.462;6.892;2023-04-03T11:19:33;1.88;;;1.00;;
44328;SDS011;30039;51.462;6.892;2023-04-03T11:22:22;3.03;;;1.10;;
44328;SDS011;30039;51.462;6.892;2023-04-03T11:27:57;2.08;;;1.00;;
44328;SDS011;30039;51.462;6.892;2023-04-03T11:30:50;3.42;;;1.10;;
44328;SDS011;30039;51.462;6.892;2023-04-03T11:36:57;2.80;;;1.13;;
44328;SDS011;30039;51.462;6.892;2023-04-03T11:39:51;3.03;;;1.20;;
44328;SDS011;30039;51.462;6.892;2023-04-03T11:42:40;1.88;;;1.17;;
44328;SDS011;30039;51.462;6.892;2023-04-03T11:45:38;1.73;;;1.10;;
44328;SDS011;30039;51.462;6.892;2023-04-03T12:03:31;2.90;;;1.33;;
44328;SDS011;30039;51.462;6.892;2023-04-03T12:09:04;2.15;;;0.95;;
44328;SDS011;30039;51.462;6.892;2023-04-03T12:15:47;2.28;;;1.05;;
44328;SDS011;30039;51.462;6.892;2023-04-03T12:18:37;2.63;;;1.00;;
44328;SDS011;30039;51.462;6.892;2023-04-03T12:32:58;3.22;;;1.00;;
44328;SDS011;30039;51.462;6.892;2023-04-03T12:47:42;3.47;;;0.93;;
44328;SDS011;30039;51.462;6.892;2023-04-03T12:50:28;3.95;;;1.10;;
44328;SDS011;30039;51.462;6.892;2023-04-03T12:53:24;2.08;;;1.00;;
44328;SDS011;30039;51.462;6.892;2023-04-03T12:56:27;2.95;;;1.10;;
44328;SDS011;30039;51.462;6.892;2023-04-03T12:59:16;2.28;;;0.70;;
44328;SDS011;30039;51.462;6.892;2023-04-03T13:02:02;3.28;;;1.38;;
44328;SDS011;30039;51.462;6.892;2023-04-03T13:04:48;1.25;;;0.80;;
44328;SDS011;30039;51.462;6.892;2023-04-03T13:07:35;4.00;;;1.35;;
44328;SDS011;30039;51.462;6.892;2023-04-03T13:10:23;2.90;;;1.00;;
44328;SDS011;30039;51.462;6.892;2023-04-03T13:13:09;3.47;;;1.00;;
44328;SDS011;30039;51.462;6.892;2023-04-03T13:15:55;2.00;;;0.80;;
44328;SDS011;30039;51.462;6.892;2023-04-03T13:18:41;1.30;;;0.90;;
44328;SDS011;30039;51.462;6.892;2023-04-03T13:21:28;1.10;;;0.70;;
44328;SDS011;30039;51.462;6.892;2023-04-03T13:24:14;1.33;;;0.77;;
44328;SDS011;30039;51.462;6.892;2023-04-03T13:27:00;3.38;;;1.10;;
44328;SDS011;30039;51.462;6.892;2023-04-03T13:29:49;2.33;;;1.23;;
44328;SDS011;30039;51.462;6.892;2023-04-03T13:32:35;2.60;;;1.00;;
44328;SDS011;30039;51.462;6.892;2023-04-03T13:35:28;3.10;;;0.95;;
44328;SDS011;30039;51.462;6.892;2023-04-03T13:44:41;1.42;;;1.00;;
44328;SDS011;30039;51.462;6.892;2023-04-03T13:47:25;3.10;;;1.10;;
44328;SDS011;30039;51.462;6.892;2023-04-03T13:50:32;2.60;;;0.80;;
44328;SDS011;30039;51.462;6.892;2023-04-03T13:53:18;4.28;;;1.20;;
44328;SDS011;30039;51.462;6.892;2023-04-03T13:56:06;1.45;;;0.90;;
44328;SDS011;30039;51.462;6.892;2023-04-03T13:58:53;0.90;;;0.70;;
44328;SDS011;30039;51.462;6.892;2023-04-03T14:01:42;1.25;;;1.00;;
44328;SDS011;30039;51.462;6.892;2023-04-03T14:07:33;1.58;;;0.85;;
44328;SDS011;30039;51.462;6.892;2023-04-03T14:10:19;2.35;;;0.90;;
44328;SDS011;30039;51.462;6.892;2023-04-03T14:13:12;3.15;;;1.23;;
44328;SDS011;30039;51.462;6.892;2023-04-03T14:16:03;1.70;;;0.80;;
44328;SDS011;30039;51.462;6.892;2023-04-03T14:18:50;2.22;;;1.17;;
44328;SDS011;30039;51.462;6.892;2023-04-03T14:21:37;4.43;;;1.10;;
44328;SDS011;30039;51.462;6.892;2023-04-03T14:24:25;1.80;;;0.80;;
44328;SDS011;30039;51.462;6.892;2023-04-03T14:27:21;1.75;;;0.95;;
44328;SDS011;30039;51.462;6.892;2023-04-03T14:32:55;2.33;;;1.00;;
44328;SDS011;30039;51.462;6.892;2023-04-03T14:35:42;4.32;;;1.00;;
44328;SDS011;30039;51.462;6.892;2023-04-03T14:38:29;2.45;;;1.10;;
44328;SDS011;30039;51.462;6.892;2023-04-03T14:41:16;2.45;;;1.10;;
44328;SDS011;30039;51.462;6.892;2023-04-03T14:44:02;2.28;;;1.02;;
44328;SDS011;30039;51.462;6.892;2023-04-03T14:46:49;1.00;;;0.90;;
44328;SDS011;30039;51.462;6.892;2023-04-03T14:49:36;3.33;;;1.30;;
44328;SDS011;30039;51.462;6.892;2023-04-03T14:52:27;2.65;;;0.90;;
44328;SDS011;30039;51.462;6.892;2023-04-03T14:55:19;2.17;;;0.98;;
44328;SDS011;30039;51.462;6.892;2023-04-03T14:58:08;1.80;;;0.80;;
44328;SDS011;30039;51.462;6.892;2023-04-03T15:00:55;1.45;;;1.00;;
44328;SDS011;30039;51.462;6.892;2023-04-03T15:03:41;4.85;;;1.52;;
44328;SDS011;30039;51.462;6.892;2023-04-03T15:06:27;2.33;;;1.13;;
44328;SDS011;30039;51.462;6.892;2023-04-03T15:12:07;2.03;;;0.80;;
44328;SDS011;30039;51.462;6.892;2023-04-03T15:14:53;2.65;;;0.90;;
44328;SDS011;30039;51.462;6.892;2023-04-03T15:17:43;3.15;;;1.10;;
44328;SDS011;30039;51.462;6.892;2023-04-03T15:20:35;3.72;;;1.35;;
44328;SDS011;30039;51.462;6.892;2023-04-03T15:23:23;1.83;;;0.90;;
44328;SDS011;30039;51.462;6.892;2023-04-03T15:26:12;1.75;;;0.85;;
44328;SDS011;30039;51.462;6.892;2023-04-03T15:29:04;3.17;;;1.13;;
44328;SDS011;30039;51.462;6.892;2023-04-03T15:31:51;2.42;;;1.20;;
44328;SDS011;30039;51.462;6.892;2023-04-03T15:34:39;2.03;;;0.98;;
44328;SDS011;30039;51.462;6.892;2023-04-03T15:37:29;3.10;;;1.30;;
44328;SDS011;30039;51.462;6.892;2023-04-03T15:40:21;3.90;;;1.17;;
44328;SDS011;30039;51.462;6.892;2023-04-03T15:43:09;4.40;;;1.20;;
44328;SDS011;30039;51.462;6.892;2023-04-03T15:45:56;3.28;;;1.33;;
44328;SDS011;30039;51.462;6.892;2023-04-03T15:48:44;2.83;;;1.60;;
44328;SDS011;30039;51.462;6.892;2023-04-03T15:51:30;3.97;;;1.35;;
44328;SDS011;30039;51.462;6.892;2023-04-03T15:54:16;6.05;;;1.50;;
44328;SDS011;30039;51.462;6.892;2023-04-03T15:57:01;5.15;;;1.35;;
44328;SDS011;30039;51.462;6.892;2023-04-03T15:59:47;2.92;;;1.20;;
44328;SDS011;30039;51.462;6.892;2023-04-03T16:02:33;3.25;;;1.33;;
44328;SDS011;30039;51.462;6.892;2023-04-03T16:05:19;5.03;;;1.52;;
44328;SDS011;30039;51.462;6.892;2023-04-03T16:08:05;3.75;;;1.35;;
44328;SDS011;30039;51.462;6.892;2023-04-03T16:10:52;3.10;;;1.15;;
44328;SDS011;30039;51.462;6.892;2023-04-03T16:13:38;4.32;;;1.25;;
44328;SDS011;30039;51.462;6.892;2023-04-03T16:16:24;2.67;;;1.35;;
44328;SDS011;30039;51.462;6.892;2023-04-03T16:19:12;4.20;;;1.30;;
44328;SDS011;30039;51.462;6.892;2023-04-03T16:21:58;2.38;;;1.20;;
44328;SDS011;30039;51.462;6.892;2023-04-03T16:24:44;3.13;;;1.25;;
44328;SDS011;30039;51.462;6.892;2023-04-03T16:27:31;2.58;;;1.00;;
44328;SDS011;30039;51.462;6.892;2023-04-03T16:30:16;2.83;;;1.23;;
44328;SDS011;30039;51.462;6.892;2023-04-03T16:33:02;5.93;;;1.40;;
44328;SDS011;30039;51.462;6.892;2023-04-03T16:35:48;4.32;;;1.23;;
44328;SDS011;30039;51.462;6.892;2023-04-03T16:38:35;3.00;;;1.25;;
44328;SDS011;30039;51.462;6.892;2023-04-03T16:41:21;2.85;;;1.30;;
44328;SDS011;30039;51.462;6.892;2023-04-03T16:44:06;3.60;;;1.20;;
44328;SDS011;30039;51.462;6.892;2023-04-03T16:46:53;3.35;;;1.40;;
44328;SDS011;30039;51.462;6.892;2023-04-03T16:49:39;1.63;;;1.08;;
44328;SDS011;30039;51.462;6.892;2023-04-03T16:52:24;3.08;;;1.48;;
44328;SDS011;30039;51.462;6.892;2023-04-03T16:55:10;2.67;;;1.05;;
44328;SDS011;30039;51.462;6.892;2023-04-03T16:57:56;3.80;;;1.27;;
44328;SDS011;30039;51.462;6.892;2023-04-03T17:00:42;2.05;;;1.20;;
44328;SDS011;30039;51.462;6.892;2023-04-03T17:03:28;3.50;;;1.48;;
44328;SDS011;30039;51.462;6.892;2023-04-03T17:06:18;2.95;;;1.30;;
44328;SDS011;30039;51.462;6.892;2023-04-03T17:09:04;3.05;;;1.40;;
44328;SDS011;30039;51.462;6.892;2023-04-03T17:11:50;1.67;;;1.05;;
44328;SDS011;30039;51.462;6.892;2023-04-03T17:14:36;2.50;;;1.13;;
44328;SDS011;30039;51.462;6.892;2023-04-03T17:17:23;3.60;;;1.20;;
44328;SDS011;30039;51.462;6.892;2023-04-03T17:20:09;2.03;;;1.00;;
44328;SDS011;30039;51.462;6.892;2023-04-03T17:22:55;2.10;;;1.10;;
44328;SDS011;30039;51.462;6.892;2023-04-03T17:25:41;3.72;;;1.33;;
44328;SDS011;30039;51.462;6.892;2023-04-03T17:28:26;4.13;;;1.30;;
44328;SDS011;30039;51.462;6.892;2023-04-03T17:31:13;2.88;;;1.10;;
44328;SDS011;30039;51.462;6.892;2023-04-03T17:33:58;2.65;;;1.20;;
44328;SDS011;30039;51.462;6.892;2023-04-03T17:36:47;4.15;;;1.35;;
44328;SDS011;30039;51.462;6.892;2023-04-03T17:39:33;3.75;;;1.60;;
44328;SDS011;30039;51.462;6.892;2023-04-03T17:42:18;2.42;;;1.10;;
44328;SDS011;30039;51.462;6.892;2023-04-03T17:45:06;4.97;;;1.33;;
44328;SDS011;30039;51.462;6.892;2023-04-03T17:47:51;1.67;;;1.05;;
44328;SDS011;30039;51.462;6.892;2023-04-03T17:50:38;3.03;;;1.20;;
44328;SDS011;30039;51.462;6.892;2023-04-03T17:53:24;2.60;;;1.20;;
44328;SDS011;30039;51.462;6.892;2023-04-03T17:56:19;3.15;;;1.17;;
44328;SDS011;30039;51.462;6.892;2023-04-03T17:59:06;6.80;;;1.90;;
44328;SDS011;30039;51.462;6.892;2023-04-03T18:01:52;4.38;;;1.33;;
44328;SDS011;30039;51.462;6.892;2023-04-03T18:04:38;3.42;;;1.23;;
44328;SDS011;30039;51.462;6.892;2023-04-03T18:07:23;3.38;;;1.45;;
44328;SDS011;30039;51.462;6.892;2023-04-03T18:10:09;3.90;;;1.33;;
44328;SDS011;30039;51.462;6.892;2023-04-03T18:12:55;4.60;;;1.30;;
44328;SDS011;30039;51.462;6.892;2023-04-03T18:15:41;3.17;;;1.50;;
44328;SDS011;30039;51.462;6.892;2023-04-03T18:18:30;3.97;;;1.55;;
44328;SDS011;30039;51.462;6.892;2023-04-03T18:21:16;3.00;;;1.38;;
44328;SDS011;30039;51.462;6.892;2023-04-03T18:24:03;3.97;;;1.63;;
44328;SDS011;30039;51.462;6.892;2023-04-03T18:26:50;4.30;;;1.83;;
44328;SDS011;30039;51.462;6.892;2023-04-03T18:29:38;4.03;;;1.98;;
44328;SDS011;30039;51.462;6.892;2023-04-03T18:32:24;3.80;;;1.35;;
44328;SDS011;30039;51.462;6.892;2023-04-03T18:35:10;2.13;;;1.30;;
44328;SDS011;30039;51.462;6.892;2023-04-03T18:37:57;4.95;;;1.73;;
44328;SDS011;30039;51.462;6.892;2023-04-03T18:40:42;5.07;;;1.58;;
44328;SDS011;30039;51.462;6.892;2023-04-03T18:43:29;3.80;;;1.77;;